createdAt,value
2023-05-14T00:01:56.784Z,68.83
2023-05-14T00:07:01.364Z,69.06
2023-05-14T00:12:05.862Z,69.77
2023-05-14T00:17:09.625Z,69.39
2023-05-14T00:22:13.520Z,69.27
2023-05-14T00:27:17.466Z,69.58
2023-05-14T00:32:21.541Z,69.71
2023-05-14T00:37:25.852Z,69.39
2023-05-14T00:42:29.547Z,69.99
2023-05-14T00:47:35.227Z,70.22
2023-05-14T00:52:39.790Z,69.32
2023-05-14T00:57:44.210Z,68.95
2023-05-14T01:02:48.139Z,69.36
2023-05-14T01:08:08.997Z,69.71
2023-05-14T01:13:27.956Z,69.17
2023-05-14T01:18:34.043Z,69.00
2023-05-14T01:23:38.357Z,68.58
2023-05-14T01:28:42.837Z,68.76
2023-05-14T01:33:49.847Z,68.76
2023-05-14T01:38:55.025Z,68.54
2023-05-14T01:43:59.285Z,68.55
2023-05-14T01:49:03.823Z,68.35
2023-05-14T01:54:07.680Z,68.23
2023-05-14T01:59:11.648Z,68.47
2023-05-14T02:04:16.069Z,68.34
2023-05-14T02:09:19.932Z,68.20
2023-05-14T02:14:23.730Z,68.40
2023-05-14T02:19:27.328Z,68.42
2023-05-14T02:24:31.083Z,68.41
2023-05-14T02:29:34.845Z,68.33
2023-05-14T02:34:39.073Z,68.21
2023-05-14T02:39:42.806Z,68.28
2023-05-14T02:44:46.850Z,68.45
2023-05-14T02:49:50.696Z,68.90
2023-05-14T02:54:54.482Z,69.33
2023-05-14T02:59:58.371Z,69.92
2023-05-14T03:05:03.774Z,69.79
2023-05-14T03:10:08.089Z,69.57
2023-05-14T03:15:12.133Z,70.09
2023-05-14T03:20:16.046Z,70.63
2023-05-14T03:25:20.696Z,70.25
2023-05-14T03:30:24.806Z,70.00
2023-05-14T03:35:29.521Z,69.86
2023-05-14T03:40:34.602Z,70.02
2023-05-14T03:45:40.328Z,70.03
2023-05-14T03:50:45.256Z,69.40
2023-05-14T03:55:49.565Z,67.14
2023-05-14T04:00:54.067Z,64.55
2023-05-14T04:05:57.756Z,61.52
2023-05-14T04:11:01.552Z,58.51
2023-05-14T04:16:06.021Z,55.27
2023-05-14T04:21:09.962Z,52.17
2023-05-14T04:26:13.751Z,49.95
2023-05-14T04:31:17.637Z,49.77
2023-05-14T04:36:21.435Z,48.48
2023-05-14T04:41:26.073Z,46.62
2023-05-14T04:46:29.937Z,45.51
2023-05-14T04:51:33.876Z,43.50
2023-05-14T04:56:37.739Z,44.33
2023-05-14T05:01:41.548Z,44.87
2023-05-14T05:06:46.268Z,45.30
2023-05-14T05:11:51.022Z,47.20
2023-05-14T05:16:54.802Z,49.11
2023-05-14T05:21:58.835Z,51.81
2023-05-14T05:27:02.827Z,53.60
2023-05-14T05:32:08.021Z,54.53
2023-05-14T05:37:14.483Z,55.61
2023-05-14T05:42:19.823Z,56.42
2023-05-14T05:47:23.819Z,56.81
2023-05-14T05:52:28.098Z,57.21
2023-05-14T05:57:32.615Z,57.50
2023-05-14T06:02:37.168Z,57.81
2023-05-14T06:07:42.777Z,57.20
2023-05-14T06:12:47.063Z,56.98
2023-05-14T06:17:51.055Z,56.57
2023-05-14T06:22:54.667Z,56.26
2023-05-14T06:27:58.707Z,55.56
2023-05-14T06:33:02.668Z,55.23
2023-05-14T06:38:06.697Z,55.50
2023-05-14T06:43:10.349Z,54.87
2023-05-14T06:48:14.413Z,55.74
2023-05-14T06:53:18.381Z,55.51
2023-05-14T06:58:22.343Z,54.17
2023-05-14T07:03:26.250Z,53.20
2023-05-14T07:08:30.181Z,52.57
2023-05-14T07:13:34.034Z,51.41
2023-05-14T07:18:37.969Z,49.79
2023-05-14T07:23:41.728Z,48.45
2023-05-14T07:28:45.504Z,48.67
2023-05-14T07:33:49.381Z,48.95
2023-05-14T07:38:53.178Z,48.90
2023-05-14T07:43:56.859Z,49.21
2023-05-14T07:49:03.609Z,48.69
2023-05-14T07:54:08.697Z,48.41
2023-05-14T07:59:14.497Z,47.34
2023-05-14T08:04:19.315Z,47.86
2023-05-14T08:09:23.071Z,48.25
2023-05-14T08:14:26.957Z,48.34
2023-05-14T08:19:30.966Z,48.42
2023-05-14T08:24:35.249Z,48.61
2023-05-14T08:29:39.079Z,47.66
2023-05-14T08:34:44.034Z,47.87
2023-05-14T08:39:48.138Z,47.42
2023-05-14T08:45:04.033Z,46.43
2023-05-14T08:50:08.780Z,46.75
2023-05-14T08:55:17.215Z,46.73
2023-05-14T09:00:24.103Z,46.70
2023-05-14T09:05:28.457Z,47.09
2023-05-14T09:10:32.855Z,44.69
2023-05-14T09:15:38.097Z,44.80
2023-05-14T09:20:41.851Z,45.06
2023-05-14T09:25:46.078Z,46.64
2023-05-14T09:30:53.642Z,46.46
2023-05-14T09:36:03.432Z,45.88
2023-05-14T09:41:07.527Z,45.23
2023-05-14T09:46:11.542Z,45.15
2023-05-14T09:51:16.141Z,44.60
2023-05-14T09:56:20.160Z,44.53
2023-05-14T10:01:25.063Z,45.15
2023-05-14T10:06:34.305Z,45.14
2023-05-14T10:11:38.886Z,45.93
2023-05-14T10:16:47.584Z,45.53
2023-05-14T10:22:12.209Z,46.25
2023-05-14T10:27:17.722Z,45.39
2023-05-14T10:32:24.659Z,45.23
2023-05-14T10:37:29.408Z,45.22
2023-05-14T10:42:42.964Z,44.15
2023-05-14T10:47:49.161Z,43.16
2023-05-14T10:52:53.661Z,41.80
2023-05-14T10:58:05.981Z,40.53
2023-05-14T11:03:10.977Z,41.75
2023-05-14T11:08:14.830Z,42.03
2023-05-14T11:13:19.659Z,41.43
2023-05-14T11:18:29.303Z,42.41
2023-05-14T11:23:33.514Z,42.42
2023-05-14T11:28:37.487Z,41.49
2023-05-14T11:33:41.798Z,41.04
2023-05-14T11:38:52.947Z,40.46
2023-05-14T11:43:58.816Z,41.64
2023-05-14T11:49:05.370Z,41.51
2023-05-14T11:54:09.780Z,41.63
2023-05-14T11:59:13.602Z,41.39
2023-05-14T12:04:19.243Z,38.56
2023-05-14T12:09:23.447Z,38.73
2023-05-14T12:14:30.425Z,38.58
2023-05-14T12:19:34.211Z,39.18
2023-05-14T12:24:39.557Z,39.90
2023-05-14T12:29:44.294Z,40.74
2023-05-14T12:34:47.972Z,39.71
2023-05-14T12:39:51.618Z,39.06
2023-05-14T12:44:55.348Z,39.51
2023-05-14T12:49:59.444Z,40.73
2023-05-14T12:55:04.184Z,40.54
2023-05-14T13:00:14.155Z,40.30
2023-05-14T13:05:18.663Z,39.83
2023-05-14T13:10:32.464Z,40.57
2023-05-14T13:15:36.733Z,40.40
2023-05-14T13:20:43.094Z,39.99
2023-05-14T13:25:49.754Z,39.56
2023-05-14T13:31:07.409Z,41.46
2023-05-14T13:36:13.736Z,42.39
2023-05-14T13:41:17.481Z,42.45
2023-05-14T13:46:23.119Z,42.00
2023-05-14T13:51:27.444Z,41.56
2023-05-14T13:56:31.079Z,40.73
2023-05-14T14:01:34.924Z,40.66
2023-05-14T14:06:40.133Z,39.60
2023-05-14T14:11:43.943Z,39.76
2023-05-14T14:16:48.943Z,40.19
2023-05-14T14:21:52.978Z,40.40
2023-05-14T14:26:57.052Z,41.06
2023-05-14T14:32:00.858Z,41.57
2023-05-14T14:37:06.682Z,41.96
2023-05-14T14:42:10.329Z,41.74
2023-05-14T14:47:14.102Z,41.98
2023-05-14T14:52:18.911Z,42.71
2023-05-14T14:57:23.281Z,42.98
2023-05-14T15:02:27.333Z,42.86
2023-05-14T15:07:33.240Z,42.27
2023-05-14T15:12:37.029Z,42.46
2023-05-14T15:17:40.722Z,42.56
2023-05-14T15:22:44.746Z,42.91
2023-05-14T15:27:49.068Z,42.63
2023-05-14T15:32:52.947Z,43.07
2023-05-14T15:38:00.136Z,43.80
2023-05-14T15:43:04.030Z,44.76
2023-05-14T15:48:07.971Z,45.10
2023-05-14T15:53:11.772Z,45.79
2023-05-14T15:58:15.704Z,45.71
2023-05-14T16:03:21.481Z,46.15
2023-05-14T16:08:27.820Z,45.86
2023-05-14T16:13:31.957Z,46.56
2023-05-14T16:18:35.686Z,47.43
2023-05-14T16:23:39.264Z,47.87
2023-05-14T16:28:43.304Z,47.91
2023-05-14T16:33:47.219Z,48.56
2023-05-14T16:39:06.624Z,48.92
2023-05-14T16:44:11.286Z,48.64
2023-05-14T16:49:18.154Z,47.68
2023-05-14T16:54:21.959Z,47.15
2023-05-14T16:59:25.862Z,47.41
2023-05-14T17:04:29.764Z,48.13
2023-05-14T17:09:34.185Z,49.94
2023-05-14T17:14:37.961Z,50.03
2023-05-14T17:19:43.333Z,51.63
2023-05-14T17:24:47.626Z,51.08
2023-05-14T17:29:52.229Z,50.14
2023-05-14T17:34:57.136Z,51.63
2023-05-14T17:40:01.020Z,53.58
2023-05-14T17:45:06.359Z,51.96
2023-05-14T17:50:10.707Z,52.41
2023-05-14T17:55:14.776Z,52.89
2023-05-14T18:00:22.509Z,52.39
2023-05-14T18:05:26.809Z,52.10
2023-05-14T18:10:31.608Z,52.84
2023-05-14T18:15:37.278Z,56.69
2023-05-14T18:20:46.318Z,59.24
2023-05-14T18:25:51.064Z,57.04
2023-05-14T18:30:58.355Z,56.89
2023-05-14T18:36:04.256Z,57.11
2023-05-14T18:41:09.433Z,57.91
2023-05-14T18:46:14.675Z,57.57
2023-05-14T18:51:19.058Z,56.93
2023-05-14T18:56:26.816Z,57.51
2023-05-14T19:01:33.119Z,57.86
2023-05-14T19:06:43.229Z,58.46
2023-05-14T19:11:48.298Z,58.94
2023-05-14T19:16:53.097Z,56.77
2023-05-14T19:21:58.300Z,57.93
2023-05-14T19:27:05.158Z,61.17
2023-05-14T19:32:10.016Z,59.81
2023-05-14T19:37:16.799Z,59.72
2023-05-14T19:42:21.289Z,61.13
2023-05-14T19:47:25.009Z,58.87
2023-05-14T19:52:32.240Z,61.14
2023-05-14T19:57:37.668Z,63.98
2023-05-14T20:02:42.329Z,66.40
2023-05-14T20:07:49.371Z,66.39
2023-05-14T20:12:53.529Z,65.52
2023-05-14T20:17:58.336Z,69.27
2023-05-14T20:23:03.125Z,70.01
2023-05-14T20:28:07.935Z,69.11
2023-05-14T20:33:13.951Z,67.25
2023-05-14T20:38:19.701Z,67.88
2023-05-14T20:43:23.715Z,68.34
2023-05-14T20:48:28.204Z,74.19
2023-05-14T20:53:32.138Z,76.07
2023-05-14T20:58:35.947Z,76.37
2023-05-14T21:03:41.703Z,76.47
2023-05-14T21:08:46.260Z,76.35
2023-05-14T21:13:50.242Z,76.93
2023-05-14T21:18:55.155Z,79.71
2023-05-14T21:23:59.058Z,78.90
2023-05-14T21:29:04.488Z,75.07
2023-05-14T21:34:08.778Z,76.11
2023-05-14T21:39:13.110Z,76.77
2023-05-14T21:44:17.554Z,78.02
2023-05-14T21:49:21.961Z,77.51
2023-05-14T21:54:25.989Z,81.05
2023-05-14T21:59:30.055Z,81.09
2023-05-14T22:04:34.476Z,80.17
2023-05-14T22:09:38.741Z,82.29
2023-05-14T22:14:42.586Z,83.11
2023-05-14T22:19:46.728Z,83.74
2023-05-14T22:24:50.584Z,84.08
2023-05-14T22:29:55.443Z,84.95
2023-05-14T22:34:59.379Z,86.87
2023-05-14T22:40:05.417Z,86.95
2023-05-14T22:45:09.984Z,86.61
2023-05-14T22:50:13.936Z,87.45
2023-05-14T22:55:18.374Z,87.69
2023-05-14T23:00:22.631Z,86.17
2023-05-14T23:05:27.337Z,86.21
2023-05-14T23:10:31.669Z,85.65
2023-05-14T23:15:35.484Z,85.62
2023-05-14T23:20:39.313Z,86.25
2023-05-14T23:25:43.320Z,86.26
2023-05-14T23:30:47.058Z,86.27
2023-05-14T23:35:50.821Z,85.61
2023-05-14T23:40:54.605Z,84.89
2023-05-14T23:45:58.958Z,85.51
2023-05-14T23:51:03.041Z,86.54
2023-05-14T23:56:06.950Z,87.54
